createdAt,value
2019-05-12T00:01:48.112Z,4.00
2019-05-12T00:04:19.025Z,3.60
2019-05-12T00:06:49.855Z,4.57
2019-05-12T00:09:20.823Z,3.90
2019-05-12T00:11:51.609Z,4.80
2019-05-12T00:14:22.263Z,5.13
2019-05-12T00:16:52.876Z,5.10
2019-05-12T00:19:23.548Z,4.43
2019-05-12T00:21:54.364Z,3.93
2019-05-12T00:24:25.137Z,4.87
2019-05-12T00:26:58.034Z,4.20
2019-05-12T00:29:30.001Z,3.77
2019-05-12T00:32:00.812Z,4.77
2019-05-12T00:34:31.450Z,4.57
2019-05-12T00:37:02.247Z,4.03
2019-05-12T00:39:33.387Z,3.77
2019-05-12T00:42:04.040Z,4.50
2019-05-12T00:44:34.724Z,3.80
2019-05-12T00:47:05.618Z,3.73
2019-05-12T00:49:37.918Z,4.10
2019-05-12T00:52:08.763Z,3.70
2019-05-12T00:54:39.410Z,3.90
2019-05-12T00:57:10.003Z,4.20
2019-05-12T00:59:40.570Z,3.17
2019-05-12T01:02:11.789Z,3.57
2019-05-12T01:04:42.545Z,3.77
2019-05-12T01:07:13.157Z,4.10
2019-05-12T01:09:43.836Z,4.03
2019-05-12T01:12:14.934Z,4.00
2019-05-12T01:14:47.835Z,3.27
2019-05-12T01:17:18.604Z,3.67
2019-05-12T01:19:49.464Z,4.57
2019-05-12T01:22:22.254Z,4.33
2019-05-12T01:24:54.100Z,3.93
2019-05-12T01:27:28.617Z,3.93
2019-05-12T01:30:01.871Z,3.67
2019-05-12T01:32:38.175Z,3.57
2019-05-12T01:35:10.542Z,2.70
2019-05-12T01:37:42.471Z,2.90
2019-05-12T01:40:13.343Z,3.10
2019-05-12T01:42:44.463Z,3.53
2019-05-12T01:45:18.062Z,2.90
2019-05-12T01:47:49.097Z,3.53
2019-05-12T01:50:20.023Z,3.03
2019-05-12T01:52:50.733Z,3.10
2019-05-12T01:55:21.700Z,2.60
2019-05-12T01:57:52.958Z,3.30
2019-05-12T02:00:27.887Z,3.00
2019-05-12T02:02:58.456Z,3.57
2019-05-12T02:05:29.352Z,3.40
2019-05-12T02:08:00.709Z,3.87
2019-05-12T02:10:31.406Z,3.60
2019-05-12T02:13:03.399Z,3.37
2019-05-12T02:15:34.209Z,3.47
2019-05-12T02:18:05.028Z,3.03
2019-05-12T02:20:37.849Z,2.73
2019-05-12T02:23:09.064Z,3.00
2019-05-12T02:25:40.227Z,2.43
2019-05-12T02:28:10.889Z,2.47
2019-05-12T02:30:42.084Z,2.57
2019-05-12T02:33:16.056Z,2.90
2019-05-12T02:35:45.578Z,2.93
2019-05-12T02:38:16.181Z,2.83
2019-05-12T02:40:47.599Z,2.23
2019-05-12T02:43:18.419Z,3.17
2019-05-12T02:45:49.316Z,3.10
2019-05-12T02:48:20.027Z,3.10
2019-05-12T02:50:50.560Z,3.03
2019-05-12T02:53:24.627Z,2.63
2019-05-12T02:55:55.688Z,3.03
2019-05-12T02:58:29.110Z,3.70
2019-05-12T03:01:05.476Z,2.73
2019-05-12T03:03:37.095Z,2.10
2019-05-12T03:06:07.838Z,3.00
2019-05-12T03:08:38.795Z,3.23
2019-05-12T03:11:09.417Z,2.20
2019-05-12T03:13:39.952Z,2.80
2019-05-12T03:16:10.666Z,2.70
2019-05-12T03:18:44.694Z,2.97
2019-05-12T03:21:15.240Z,2.47
2019-05-12T03:23:46.375Z,2.47
2019-05-12T03:26:17.149Z,3.33
2019-05-12T03:28:49.391Z,2.83
2019-05-12T03:31:25.471Z,2.57
2019-05-12T03:33:59.567Z,2.70
2019-05-12T03:36:32.077Z,3.20
2019-05-12T03:38:57.192Z,2.40
2019-05-12T03:41:28.730Z,2.57
2019-05-12T03:43:59.497Z,2.93
2019-05-12T03:46:30.225Z,2.90
2019-05-12T03:49:00.863Z,2.50
2019-05-12T03:51:34.740Z,2.43
2019-05-12T03:54:04.998Z,2.77
2019-05-12T03:56:36.141Z,2.80
2019-05-12T03:59:07.160Z,3.00
2019-05-12T04:01:38.800Z,3.07
2019-05-12T04:04:09.582Z,2.00
2019-05-12T04:06:40.296Z,2.30
2019-05-12T04:09:11.045Z,2.17
2019-05-12T04:11:44.432Z,2.50
2019-05-12T04:14:15.034Z,2.27
